Time;durP1;ratioP1;P1;durP2;ratioP2;P2;SDS_P1;SDS_P2;PMS_P1;PMS_P2;Temp;Humidity;BMP_temperature;BMP_pressure;BME280_temperature;BME280_humidity;BME280_pressure;Samples;Min_cycle;Max_cycle;Signal;HPM_P1;HPM_P2
2023/03/11 00:00:15;;;;;;;;;;;;;;;;;;1867443;29;8120;-65
2023/03/11 00:01:13;;;;;;;;;;;;;;;;;;1868376;29;7010;-65
2023/03/11 00:02:10;;;;;;;;;;;;;;;;;;1867264;29;7133;-66
2023/03/11 00:03:08;;;;;;;;;;;;;;;;;;1867559;29;7089;-65
2023/03/11 00:04:06;;;;;;;;;;;;;;;;;;1867359;29;8035;-65
2023/03/11 00:05:03;;;;;;;;;;;;;;;;;;1874062;29;7990;-65
2023/03/11 00:06:01;;;;;;;;;;;;;;;;;;1874896;29;7096;-66
2023/03/11 00:06:58;;;;;;;;;;;;;;;;;;1873903;29;7129;-65
2023/03/11 00:07:56;;;;;;;;;;;;;;;;;;1867191;29;8037;-65
2023/03/11 00:08:53;;;;;;;;;;;;;;;;;;1867532;29;7169;-66
2023/03/11 00:09:51;;;;;;;;;;;;;;;;;;1871648;29;7093;-65
2023/03/11 00:10:51;;;;;;;;;;;;;;;;;;1865607;29;7010;-65
2023/03/11 00:11:49;;;;;;;;;;;;;;;;;;1867365;29;7010;-65
2023/03/11 00:12:46;;;;;;;;;;;;;;;;;;1873966;29;7010;-66
2023/03/11 00:13:44;;;;;;;;;;;;;;;;;;1870015;29;8012;-65
2023/03/11 00:14:41;;;;;;;;;;;;;;;;;;1874753;29;8072;-65
2023/03/11 00:15:39;;;;;;;;;;;;;;;;;;1874794;29;7009;-65
2023/03/11 00:16:37;;;;;;;;;;;;;;;;;;1873573;29;7177;-65
2023/03/11 00:17:34;;;;;;;;;;;;;;;;;;1871809;29;7101;-65
2023/03/11 00:18:32;;;;;;;;;;;;;;;;;;1867529;29;7121;-67
2023/03/11 00:19:29;;;;;;;;;;;;;;;;;;1866928;29;7089;-65
2023/03/11 00:20:32;;;;;;;;;;;;;;;;;;1866829;29;7113;-65
2023/03/11 00:21:29;;;;;;;;;;;;;;;;;;1867371;29;8012;-65
2023/03/11 00:22:26;;;;;;;;;;;;;;;;;;1868328;29;8047;-65
2023/03/11 00:23:24;;;;;;;;;;;;;;;;;;1874523;29;7050;-65
2023/03/11 00:24:22;;;;;;;;;;;;;;;;;;1875131;29;7013;-66
2023/03/11 00:25:20;;;;;;;;;;;;;;;;;;1874261;29;8066;-65
2023/03/11 00:26:17;;;;;;;;;;;;;;;;;;1874748;29;7104;-65
2023/03/11 00:27:15;;;;;;;;;;;;;;;;;;1874786;29;7026;-65
2023/03/11 00:28:13;;;;;;;;;;;;;;;;;;1874251;29;7010;-65
2023/03/11 00:29:11;;;;;;;;;;;;;;;;;;1874637;29;7113;-66
2023/03/11 00:30:09;;;;;;;;;;;;;;;;;;1875065;29;7159;-65
2023/03/11 00:31:07;;;;;;;;;;;;;;;;;;1874733;29;7014;-66
2023/03/11 00:32:04;;;;;;;;;;;;;;;;;;1874447;29;7092;-65
2023/03/11 00:33:01;;;;;;;;;;;;;;;;;;1875073;29;8028;-65
2023/03/11 00:33:59;;;;;;;;;;;;;;;;;;1874625;29;7010;-66
2023/03/11 00:34:57;;;;;;;;;;;;;;;;;;1873507;29;7233;-66
2023/03/11 00:35:54;;;;;;;;;;;;;;;;;;1873983;29;7162;-65
2023/03/11 00:36:51;;;;;;;;;;;;;;;;;;1873867;29;7084;-65
2023/03/11 00:37:51;;;;;;;;;;;;;;;;;;1874516;29;7010;-66
2023/03/11 00:38:49;;;;;;;;;;;;;;;;;;1874697;29;7183;-65
2023/03/11 00:39:47;;;;;;;;;;;;;;;;;;1874185;29;7194;-65
2023/03/11 00:40:45;;;;;;;;;;;;;;;;;;1874733;29;8037;-65
2023/03/11 00:41:42;;;;;;;;;;;;;;;;;;1874283;29;7010;-65
2023/03/11 00:42:40;;;;;;;;;;;;;;;;;;1874473;29;7155;-65
2023/03/11 00:43:37;;;;;;;;;;;;;;;;;;1874559;29;7965;-65
2023/03/11 00:44:35;;;;;;;;;;;;;;;;;;1874571;29;8016;-65
2023/03/11 00:45:32;;;;;;;;;;;;;;;;;;1874638;28;7010;-65
2023/03/11 00:46:30;;;;;;;;;;;;;;;;;;1875516;28;7129;-64
2023/03/11 00:47:27;;;;;;;;;;;;;;;;;;1875752;28;7009;-65
2023/03/11 00:48:25;;;;;;;;;;;;;;;;;;1876097;28;7313;-65
2023/03/11 00:49:22;;;;;;;;;;;;;;;;;;1875918;28;7006;-65
2023/03/11 00:50:24;;;;;;;;;;;;;;;;;;1874750;28;7006;-66
2023/03/11 00:51:21;;;;;;;;;;;;;;;;;;1875203;28;8020;-65
2023/03/11 00:52:19;;;;;;;;;;;;;;;;;;1875671;28;7034;-65
2023/03/11 00:53:16;;;;;;;;;;;;;;;;;;1875363;28;7093;-65
2023/03/11 00:54:13;;;;;;;;;;;;;;;;;;1875555;28;8104;-65
2023/03/11 00:55:12;;;;;;;;;;;;;;;;;;1875863;28;7006;-65
2023/03/11 00:56:11;;;;;;;;;;;;;;;;;;1876064;28;7042;-65
2023/03/11 00:57:09;;;;;;;;;;;;;;;;;;1875520;28;7438;-66
2023/03/11 00:58:06;;;;;;;;;;;;;;;;;;1875177;28;7139;-66
2023/03/11 00:59:03;;;;;;;;;;;;;;;;;;1875801;28;7089;-65
2023/03/11 01:00:00;;;;;;;;;;;;;;;;;;1875885;28;7093;-65
2023/03/11 01:00:58;;;;;;;;;;;;;;;;;;1875492;28;7031;-65
2023/03/11 01:01:55;;;;;;;;;;;;;;;;;;1874625;28;7325;-65
2023/03/11 01:02:53;;;;;;;;;;;;;;;;;;1875495;28;7010;-65
2023/03/11 01:03:51;;;;;;;;;;;;;;;;;;1875916;28;7136;-65
2023/03/11 01:04:52;;;;;;;;;;;;;;;;;;1875196;28;7022;-65
2023/03/11 01:05:49;;;;;;;;;;;;;;;;;;1876076;28;7006;-66
2023/03/11 01:06:47;;;;;;;;;;;;;;;;;;1876050;28;7009;-65
2023/03/11 01:07:44;;;;;;;;;;;;;;;;;;1875467;28;7125;-65
2023/03/11 01:08:41;;;;;;;;;;;;;;;;;;1875569;28;8326;-65
2023/03/11 01:09:39;;;;;;;;;;;;;;;;;;1874611;28;7110;-66
2023/03/11 01:10:36;;;;;;;;;;;;;;;;;;1875307;28;7005;-65
2023/03/11 01:11:34;;;;;;;;;;;;;;;;;;1875552;28;7034;-65
2023/03/11 01:12:31;;;;;;;;;;;;;;;;;;1868352;29;7006;-65
2023/03/11 01:13:28;;;;;;;;;;;;;;;;;;1867594;29;7010;-65
2023/03/11 01:14:26;;;;;;;;;;;;;;;;;;1873787;28;7105;-65
2023/03/11 01:15:26;;;;;;;;;;;;;;;;;;1875558;28;7133;-65
2023/03/11 01:16:24;;;;;;;;;;;;;;;;;;1875627;28;7123;-64
2023/03/11 01:17:21;;;;;;;;;;;;;;;;;;1875339;28;8231;-65
2023/03/11 01:18:19;;;;;;;;;;;;;;;;;;1875982;28;7030;-65
2023/03/11 01:19:16;;;;;;;;;;;;;;;;;;1874835;28;7006;-65
2023/03/11 01:20:14;;;;;;;;;;;;;;;;;;1875529;28;7110;-65
2023/03/11 01:21:11;;;;;;;;;;;;;;;;;;1875398;28;8050;-65
2023/03/11 01:22:09;;;;;;;;;;;;;;;;;;1875604;28;8040;-65
2023/03/11 01:23:07;;;;;;;;;;;;;;;;;;1873248;28;7097;-65
2023/03/11 01:24:05;;;;;;;;;;;;;;;;;;1875512;28;7148;-65
2023/03/11 01:25:02;;;;;;;;;;;;;;;;;;1871978;28;7010;-65
2023/03/11 01:26:00;;;;;;;;;;;;;;;;;;1870123;28;7126;-65
2023/03/11 01:26:57;;;;;;;;;;;;;;;;;;1870776;28;7305;-65
2023/03/11 01:27:54;;;;;;;;;;;;;;;;;;1874985;28;7006;-65
2023/03/11 01:28:52;;;;;;;;;;;;;;;;;;1875175;28;7437;-65
2023/03/11 01:29:49;;;;;;;;;;;;;;;;;;1869729;28;7206;-65
2023/03/11 01:30:46;;;;;;;;;;;;;;;;;;1868345;29;8147;-65
2023/03/11 01:31:44;;;;;;;;;;;;;;;;;;1868319;29;7392;-65
2023/03/11 01:32:41;;;;;;;;;;;;;;;;;;1874780;28;7440;-65
2023/03/11 01:33:39;;;;;;;;;;;;;;;;;;1872546;28;7113;-66
2023/03/11 01:34:36;;;;;;;;;;;;;;;;;;1871252;28;7352;-65
2023/03/11 01:35:34;;;;;;;;;;;;;;;;;;1869225;28;7050;-65
2023/03/11 01:36:31;;;;;;;;;;;;;;;;;;1874314;28;8039;-65
2023/03/11 01:37:29;;;;;;;;;;;;;;;;;;1870639;28;8115;-65
2023/03/11 01:38:26;;;;;;;;;;;;;;;;;;1873886;28;7010;-66
2023/03/11 01:39:24;;;;;;;;;;;;;;;;;;1871838;28;7014;-65
2023/03/11 01:40:27;;;;;;;;;;;;;;;;;;1874887;28;7124;-65
2023/03/11 01:41:24;;;;;;;;;;;;;;;;;;1870057;28;8104;-66
2023/03/11 01:42:21;;;;;;;;;;;;;;;;;;1867908;29;8051;-65
2023/03/11 01:43:40;;;;;;;;;;;;;;;;;;1868591;28;7113;-65
2023/03/11 01:44:38;;;;;;;;;;;;;;;;;;1868157;29;7010;-65
2023/03/11 01:45:35;;;;;;;;;;;;;;;;;;1870018;28;8039;-65
2023/03/11 01:46:36;;;;;;;;;;;;;;;;;;1869154;28;7149;-65
2023/03/11 01:47:35;;;;;;;;;;;;;;;;;;1872351;28;7006;-65
2023/03/11 01:48:33;;;;;;;;;;;;;;;;;;1871587;28;7130;-65
2023/03/11 01:49:30;;;;;;;;;;;;;;;;;;1870738;28;7010;-65
2023/03/11 01:50:33;;;;;;;;;;;;;;;;;;1870197;28;7097;-65
2023/03/11 01:51:34;;;;;;;;;;;;;;;;;;1870716;28;8175;-65
2023/03/11 01:52:32;;;;;;;;;;;;;;;;;;1868246;29;7037;-65
2023/03/11 01:53:29;;;;;;;;;;;;;;;;;;1869034;28;7227;-65
2023/03/11 01:54:29;;;;;;;;;;;;;;;;;;1869826;28;7018;-66
2023/03/11 01:55:28;;;;;;;;;;;;;;;;;;1875233;28;7010;-65
2023/03/11 01:56:26;;;;;;;;;;;;;;;;;;1875499;28;7022;-65
2023/03/11 01:57:23;;;;;;;;;;;;;;;;;;1873892;28;7005;-65
2023/03/11 01:58:23;;;;;;;;;;;;;;;;;;1871378;28;7030;-65
2023/03/11 01:59:28;;;;;;;;;;;;;;;;;;1874053;28;7005;-65
2023/03/11 02:00:25;;;;;;;;;;;;;;;;;;1874521;28;7116;-65
2023/03/11 02:01:23;;;;;;;;;;;;;;;;;;1873582;28;7089;-64
2023/03/11 02:02:40;;;;;;;;;;;;;;;;;;1874781;28;7002;-65
2023/03/11 02:03:39;;;;;;;;;;;;;;;;;;1868208;29;7113;-64
2023/03/11 02:04:39;;;;;;;;;;;;;;;;;;1868790;28;7009;-65
2023/03/11 02:05:37;;;;;;;;;;;;;;;;;;1866954;29;7030;-65
2023/03/11 02:06:35;;;;;;;;;;;;;;;;;;1867935;29;7144;-65
2023/03/11 02:07:32;;;;;;;;;;;;;;;;;;1868131;28;7085;-65
2023/03/11 02:08:33;;;;;;;;;;;;;;;;;;1868826;28;7014;-65
2023/03/11 02:09:30;;;;;;;;;;;;;;;;;;1875198;28;7002;-65
2023/03/11 02:10:27;;;;;;;;;;;;;;;;;;1870559;28;7120;-65
2023/03/11 02:11:28;;;;;;;;;;;;;;;;;;1874019;28;7264;-65
2023/03/11 02:12:28;;;;;;;;;;;;;;;;;;1870596;28;7010;-65
2023/03/11 02:13:25;;;;;;;;;;;;;;;;;;1868169;29;8028;-65
2023/03/11 02:14:24;;;;;;;;;;;;;;;;;;1871186;28;7093;-65
2023/03/11 02:15:23;;;;;;;;;;;;;;;;;;1875202;28;7014;-65
2023/03/11 02:16:20;;;;;;;;;;;;;;;;;;1871469;28;7006;-65
2023/03/11 02:17:18;;;;;;;;;;;;;;;;;;1873029;28;7046;-65
2023/03/11 02:18:20;;;;;;;;;;;;;;;;;;1866171;29;7189;-65
2023/03/11 02:19:53;;;;;;;;;;;;;;;;;;1864523;29;8024;-66
2023/03/11 02:20:51;;;;;;;;;;;;;;;;;;1844348;29;7047;-65
2023/03/11 02:21:48;;;;;;;;;;;;;;;;;;1845739;29;7010;-65
2023/03/11 02:22:47;;;;;;;;;;;;;;;;;;1852599;29;7125;-65
2023/03/11 02:23:56;;;;;;;;;;;;;;;;;;1872154;28;7102;-65
2023/03/11 02:25:03;;;;;;;;;;;;;;;;;;1875052;28;7014;-64
2023/03/11 02:26:15;;;;;;;;;;;;;;;;;;1874973;28;9019;-65
2023/03/11 02:27:17;;;;;;;;;;;;;;;;;;1875788;28;7276;-65
2023/03/11 02:28:18;;;;;;;;;;;;;;;;;;1874968;28;7010;-65
2023/03/11 02:29:16;;;;;;;;;;;;;;;;;;1874981;28;7089;-66
2023/03/11 02:30:15;;;;;;;;;;;;;;;;;;1875263;28;7006;-65
2023/03/11 02:31:12;;;;;;;;;;;;;;;;;;1867207;29;7972;-65
2023/03/11 02:32:10;;;;;;;;;;;;;;;;;;1867241;29;8023;-65
2023/03/11 02:33:09;;;;;;;;;;;;;;;;;;1872880;28;7006;-65
2023/03/11 02:34:12;;;;;;;;;;;;;;;;;;1875967;28;7380;-65
2023/03/11 02:35:09;;;;;;;;;;;;;;;;;;1875411;28;7042;-65
2023/03/11 02:36:27;;;;;;;;;;;;;;;;;;1875017;28;7092;-64
2023/03/11 02:37:24;;;;;;;;;;;;;;;;;;1873948;28;7104;-65
2023/03/11 02:38:22;;;;;;;;;;;;;;;;;;1874657;28;7117;-65
2023/03/11 02:39:36;;;;;;;;;;;;;;;;;;1875114;28;8069;-65
2023/03/11 02:40:48;;;;;;;;;;;;;;;;;;1875401;28;7002;-65
2023/03/11 02:41:46;;;;;;;;;;;;;;;;;;1873964;28;7093;-65
2023/03/11 02:42:43;;;;;;;;;;;;;;;;;;1874666;28;7201;-65
2023/03/11 02:43:43;;;;;;;;;;;;;;;;;;1875282;28;7274;-65
2023/03/11 02:44:43;;;;;;;;;;;;;;;;;;1874953;28;7360;-65
2023/03/11 02:45:44;;;;;;;;;;;;;;;;;;1875131;28;7089;-65
2023/03/11 02:46:42;;;;;;;;;;;;;;;;;;1875197;28;9342;-66
2023/03/11 02:47:39;;;;;;;;;;;;;;;;;;1874774;28;7246;-66
2023/03/11 02:48:37;;;;;;;;;;;;;;;;;;1874908;28;7132;-65
2023/03/11 02:49:35;;;;;;;;;;;;;;;;;;1874021;28;7006;-65
2023/03/11 02:50:36;;;;;;;;;;;;;;;;;;1874116;28;7089;-65
2023/03/11 02:51:33;;;;;;;;;;;;;;;;;;1873950;28;7106;-65
2023/03/11 02:52:32;;;;;;;;;;;;;;;;;;1875262;28;7101;-64
2023/03/11 02:53:33;;;;;;;;;;;;;;;;;;1874985;28;7022;-65
2023/03/11 02:54:31;;;;;;;;;;;;;;;;;;1874366;28;7117;-66
2023/03/11 02:55:29;;;;;;;;;;;;;;;;;;1875422;28;7038;-65
2023/03/11 02:56:27;;;;;;;;;;;;;;;;;;1873903;28;7117;-65
2023/03/11 02:57:24;;;;;;;;;;;;;;;;;;1874978;28;7010;-65
2023/03/11 02:58:22;;;;;;;;;;;;;;;;;;1874918;28;7013;-65
2023/03/11 02:59:19;;;;;;;;;;;;;;;;;;1874960;28;7446;-65
2023/03/11 03:00:17;;;;;;;;;;;;;;;;;;1874920;28;7014;-65
2023/03/11 03:01:14;;;;;;;;;;;;;;;;;;1874909;28;8062;-65
2023/03/11 03:02:12;;;;;;;;;;;;;;;;;;1874721;28;7157;-65
2023/03/11 03:03:09;;;;;;;;;;;;;;;;;;1875067;28;7014;-65
2023/03/11 03:04:06;;;;;;;;;;;;;;;;;;1874954;28;7010;-65
2023/03/11 03:05:04;;;;;;;;;;;;;;;;;;1874600;28;7110;-65
2023/03/11 03:06:02;;;;;;;;;;;;;;;;;;1874718;28;7089;-65
2023/03/11 03:06:59;;;;;;;;;;;;;;;;;;1874643;28;7093;-65
2023/03/11 03:07:56;;;;;;;;;;;;;;;;;;1874804;28;7013;-65
2023/03/11 03:08:54;;;;;;;;;;;;;;;;;;1874521;28;7029;-65
2023/03/11 03:09:51;;;;;;;;;;;;;;;;;;1874954;28;8101;-65
2023/03/11 03:10:49;;;;;;;;;;;;;;;;;;1875391;28;7412;-65
2023/03/11 03:11:46;;;;;;;;;;;;;;;;;;1874694;28;7101;-66
2023/03/11 03:12:43;;;;;;;;;;;;;;;;;;1874868;28;7009;-65
2023/03/11 03:13:41;;;;;;;;;;;;;;;;;;1874965;28;7100;-65
2023/03/11 03:14:38;;;;;;;;;;;;;;;;;;1874547;28;7010;-65
2023/03/11 03:15:35;;;;;;;;;;;;;;;;;;1874822;28;7352;-65
2023/03/11 03:16:33;;;;;;;;;;;;;;;;;;1874741;28;7097;-64
2023/03/11 03:17:30;;;;;;;;;;;;;;;;;;1875179;28;7149;-65
2023/03/11 03:18:28;;;;;;;;;;;;;;;;;;1874045;28;7149;-65
2023/03/11 03:19:25;;;;;;;;;;;;;;;;;;1875011;28;8235;-66
2023/03/11 03:20:25;;;;;;;;;;;;;;;;;;1874623;28;7316;-65
2023/03/11 03:21:22;;;;;;;;;;;;;;;;;;1874769;28;7014;-65
2023/03/11 03:22:20;;;;;;;;;;;;;;;;;;1874434;28;7010;-65
2023/03/11 03:23:17;;;;;;;;;;;;;;;;;;1874615;28;9006;-65
2023/03/11 03:24:15;;;;;;;;;;;;;;;;;;1875244;28;7006;-66
2023/03/11 03:25:12;;;;;;;;;;;;;;;;;;1874478;28;7006;-65
2023/03/11 03:26:11;;;;;;;;;;;;;;;;;;1874878;28;8009;-65
2023/03/11 03:27:08;;;;;;;;;;;;;;;;;;1874679;28;7164;-65
2023/03/11 03:28:06;;;;;;;;;;;;;;;;;;1874707;28;7316;-65
2023/03/11 03:29:04;;;;;;;;;;;;;;;;;;1874698;28;7010;-65
2023/03/11 03:30:02;;;;;;;;;;;;;;;;;;1874439;28;7021;-65
2023/03/11 03:31:08;;;;;;;;;;;;;;;;;;1875031;28;7042;-65
2023/03/11 03:32:05;;;;;;;;;;;;;;;;;;1875304;28;8024;-65
2023/03/11 03:33:03;;;;;;;;;;;;;;;;;;1874720;28;7968;-65
2023/03/11 03:34:01;;;;;;;;;;;;;;;;;;1874465;28;8036;-65
2023/03/11 03:34:59;;;;;;;;;;;;;;;;;;1874626;28;7096;-66
2023/03/11 03:35:56;;;;;;;;;;;;;;;;;;1874446;28;7010;-65
2023/03/11 03:36:54;;;;;;;;;;;;;;;;;;1874709;28;8032;-65
2023/03/11 03:37:51;;;;;;;;;;;;;;;;;;1874582;28;7113;-65
2023/03/11 03:38:52;;;;;;;;;;;;;;;;;;1874929;28;7038;-66
2023/03/11 03:39:49;;;;;;;;;;;;;;;;;;1875030;28;7006;-66
2023/03/11 03:40:47;;;;;;;;;;;;;;;;;;1874628;28;7018;-65
2023/03/11 03:41:44;;;;;;;;;;;;;;;;;;1873892;28;8080;-65
2023/03/11 03:42:41;;;;;;;;;;;;;;;;;;1874731;28;7116;-65
2023/03/11 03:43:39;;;;;;;;;;;;;;;;;;1874597;29;8016;-65
2023/03/11 03:44:36;;;;;;;;;;;;;;;;;;1874678;28;7037;-65
2023/03/11 03:45:33;;;;;;;;;;;;;;;;;;1874987;29;7042;-65
2023/03/11 03:46:31;;;;;;;;;;;;;;;;;;1874711;29;7129;-65
2023/03/11 03:47:28;;;;;;;;;;;;;;;;;;1874128;29;7010;-65
2023/03/11 03:48:26;;;;;;;;;;;;;;;;;;1874551;29;7188;-65
2023/03/11 03:49:23;;;;;;;;;;;;;;;;;;1874489;29;8016;-65
2023/03/11 03:50:20;;;;;;;;;;;;;;;;;;1874745;29;7146;-65
2023/03/11 03:51:18;;;;;;;;;;;;;;;;;;1874282;29;7156;-65
2023/03/11 03:52:15;;;;;;;;;;;;;;;;;;1874566;29;8024;-65
2023/03/11 03:53:12;;;;;;;;;;;;;;;;;;1875041;29;7166;-64
2023/03/11 03:54:10;;;;;;;;;;;;;;;;;;1874636;29;7084;-65
2023/03/11 03:55:07;;;;;;;;;;;;;;;;;;1874419;29;7128;-65
2023/03/11 03:56:06;;;;;;;;;;;;;;;;;;1874667;29;7321;-65
2023/03/11 03:57:03;;;;;;;;;;;;;;;;;;1874533;29;7010;-65
2023/03/11 03:58:01;;;;;;;;;;;;;;;;;;1874274;29;7076;-65
2023/03/11 03:58:58;;;;;;;;;;;;;;;;;;1874682;29;8086;-65
2023/03/11 03:59:55;;;;;;;;;;;;;;;;;;1874844;29;8036;-65
2023/03/11 04:00:56;;;;;;;;;;;;;;;;;;1872786;29;7002;-65
2023/03/11 04:01:53;;;;;;;;;;;;;;;;;;1866122;29;7072;-65
2023/03/11 04:02:51;;;;;;;;;;;;;;;;;;1866489;29;7109;-65
2023/03/11 04:03:48;;;;;;;;;;;;;;;;;;1873253;29;7169;-65
2023/03/11 04:04:46;;;;;;;;;;;;;;;;;;1874515;29;8078;-66
2023/03/11 04:05:43;;;;;;;;;;;;;;;;;;1875388;29;7109;-65
2023/03/11 04:06:41;;;;;;;;;;;;;;;;;;1874517;29;9052;-65
2023/03/11 04:07:38;;;;;;;;;;;;;;;;;;1874397;29;7125;-65
2023/03/11 04:08:36;;;;;;;;;;;;;;;;;;1872710;29;7006;-65
2023/03/11 04:09:34;;;;;;;;;;;;;;;;;;1874318;29;7067;-66
2023/03/11 04:10:31;;;;;;;;;;;;;;;;;;1873692;29;7006;-65
2023/03/11 04:11:28;;;;;;;;;;;;;;;;;;1874654;29;7089;-66
2023/03/11 04:12:26;;;;;;;;;;;;;;;;;;1874415;29;7101;-65
2023/03/11 04:13:23;;;;;;;;;;;;;;;;;;1875694;29;7010;-65
2023/03/11 04:14:21;;;;;;;;;;;;;;;;;;1874139;29;7006;-65
2023/03/11 04:15:18;;;;;;;;;;;;;;;;;;1874491;29;7110;-66
2023/03/11 04:16:18;;;;;;;;;;;;;;;;;;1874150;29;7006;-65
2023/03/11 04:17:16;;;;;;;;;;;;;;;;;;1874416;29;7010;-66
2023/03/11 04:18:14;;;;;;;;;;;;;;;;;;1874577;29;7129;-65
2023/03/11 04:19:11;;;;;;;;;;;;;;;;;;1874544;29;7101;-65
2023/03/11 04:20:09;;;;;;;;;;;;;;;;;;1875082;28;7010;-65
2023/03/11 04:21:06;;;;;;;;;;;;;;;;;;1875432;28;8124;-65
2023/03/11 04:22:04;;;;;;;;;;;;;;;;;;1875807;28;7116;-65
2023/03/11 04:23:02;;;;;;;;;;;;;;;;;;1874606;28;7113;-66
2023/03/11 04:23:59;;;;;;;;;;;;;;;;;;1871652;28;7153;-65
2023/03/11 04:24:57;;;;;;;;;;;;;;;;;;1868225;29;7180;-65
2023/03/11 04:25:54;;;;;;;;;;;;;;;;;;1868022;28;7014;-65
2023/03/11 04:26:52;;;;;;;;;;;;;;;;;;1873153;28;7014;-65
2023/03/11 04:27:51;;;;;;;;;;;;;;;;;;1873359;28;7010;-65
2023/03/11 04:28:48;;;;;;;;;;;;;;;;;;1875539;28;7010;-65
2023/03/11 04:29:46;;;;;;;;;;;;;;;;;;1875333;28;7100;-66
2023/03/11 04:30:43;;;;;;;;;;;;;;;;;;1872743;28;8039;-66
2023/03/11 04:31:40;;;;;;;;;;;;;;;;;;1868692;29;7046;-65
2023/03/11 04:32:38;;;;;;;;;;;;;;;;;;1868743;28;7014;-65
2023/03/11 04:33:35;;;;;;;;;;;;;;;;;;1875969;28;7124;-66
2023/03/11 04:34:32;;;;;;;;;;;;;;;;;;1873210;28;7036;-65
2023/03/11 04:35:30;;;;;;;;;;;;;;;;;;1874071;28;9016;-66
2023/03/11 04:36:27;;;;;;;;;;;;;;;;;;1875783;28;7412;-65
2023/03/11 04:37:28;;;;;;;;;;;;;;;;;;1876046;28;8040;-65
2023/03/11 04:38:25;;;;;;;;;;;;;;;;;;1876027;28;9000;-65
2023/03/11 04:39:23;;;;;;;;;;;;;;;;;;1875637;28;7097;-65
2023/03/11 04:40:20;;;;;;;;;;;;;;;;;;1875084;28;7113;-65
2023/03/11 04:41:18;;;;;;;;;;;;;;;;;;1867634;29;7031;-65
2023/03/11 04:42:15;;;;;;;;;;;;;;;;;;1868407;29;7205;-66
2023/03/11 04:43:12;;;;;;;;;;;;;;;;;;1868663;29;7039;-65
2023/03/11 04:44:10;;;;;;;;;;;;;;;;;;1869107;29;7312;-65
2023/03/11 04:45:07;;;;;;;;;;;;;;;;;;1869546;28;7341;-65
2023/03/11 04:46:05;;;;;;;;;;;;;;;;;;1867095;29;7156;-66
2023/03/11 04:47:02;;;;;;;;;;;;;;;;;;1873422;28;7121;-65
2023/03/11 04:47:59;;;;;;;;;;;;;;;;;;1869190;29;8039;-65
2023/03/11 04:48:57;;;;;;;;;;;;;;;;;;1868943;29;7101;-65
2023/03/11 04:49:55;;;;;;;;;;;;;;;;;;1875749;28;7124;-65
2023/03/11 04:50:54;;;;;;;;;;;;;;;;;;1869779;28;7006;-65
2023/03/11 04:51:51;;;;;;;;;;;;;;;;;;1872490;28;7084;-65
2023/03/11 04:52:49;;;;;;;;;;;;;;;;;;1868387;29;7097;-66
2023/03/11 04:53:46;;;;;;;;;;;;;;;;;;1873984;28;7026;-66
2023/03/11 04:54:44;;;;;;;;;;;;;;;;;;1869371;28;7129;-65
2023/03/11 04:55:41;;;;;;;;;;;;;;;;;;1870897;28;7096;-65
2023/03/11 04:56:38;;;;;;;;;;;;;;;;;;1869487;28;7125;-65
2023/03/11 04:57:36;;;;;;;;;;;;;;;;;;1868750;29;7006;-65
2023/03/11 04:58:33;;;;;;;;;;;;;;;;;;1868829;29;7010;-65
2023/03/11 04:59:30;;;;;;;;;;;;;;;;;;1867152;29;7046;-65
2023/03/11 05:00:28;;;;;;;;;;;;;;;;;;1869638;28;7117;-64
2023/03/11 05:01:26;;;;;;;;;;;;;;;;;;1875911;28;7113;-65
2023/03/11 05:02:23;;;;;;;;;;;;;;;;;;1869035;28;7002;-65
2023/03/11 05:03:21;;;;;;;;;;;;;;;;;;1868475;28;7002;-65
2023/03/11 05:04:18;;;;;;;;;;;;;;;;;;1875107;28;7018;-65
2023/03/11 05:05:15;;;;;;;;;;;;;;;;;;1875496;28;7093;-65
2023/03/11 05:06:13;;;;;;;;;;;;;;;;;;1876075;28;7088;-65
2023/03/11 05:07:10;;;;;;;;;;;;;;;;;;1872719;28;7006;-65
2023/03/11 05:08:07;;;;;;;;;;;;;;;;;;1876268;28;7005;-65
2023/03/11 05:09:05;;;;;;;;;;;;;;;;;;1869182;28;8036;-65
2023/03/11 05:10:02;;;;;;;;;;;;;;;;;;1869968;28;7006;-65
2023/03/11 05:11:00;;;;;;;;;;;;;;;;;;1868571;29;7385;-65
2023/03/11 05:11:57;;;;;;;;;;;;;;;;;;1871701;28;7109;-66
2023/03/11 05:12:55;;;;;;;;;;;;;;;;;;1874726;28;7085;-65
2023/03/11 05:13:52;;;;;;;;;;;;;;;;;;1874507;28;7005;-65
2023/03/11 05:14:49;;;;;;;;;;;;;;;;;;1875894;28;7009;-65
2023/03/11 05:15:47;;;;;;;;;;;;;;;;;;1875637;28;7005;-65
2023/03/11 05:16:44;;;;;;;;;;;;;;;;;;1872394;28;7100;-65
2023/03/11 05:17:42;;;;;;;;;;;;;;;;;;1869114;28;7105;-65
2023/03/11 05:18:39;;;;;;;;;;;;;;;;;;1868324;28;7093;-65
2023/03/11 05:19:36;;;;;;;;;;;;;;;;;;1869522;28;7038;-65
2023/03/11 05:20:34;;;;;;;;;;;;;;;;;;1872968;28;7062;-65
2023/03/11 05:21:31;;;;;;;;;;;;;;;;;;1874930;28;7097;-65
2023/03/11 05:22:28;;;;;;;;;;;;;;;;;;1869936;28;8039;-66
2023/03/11 05:23:26;;;;;;;;;;;;;;;;;;1875704;28;7145;-65
2023/03/11 05:24:26;;;;;;;;;;;;;;;;;;1875226;28;8025;-65
2023/03/11 05:25:23;;;;;;;;;;;;;;;;;;1875639;28;7748;-65
2023/03/11 05:26:20;;;;;;;;;;;;;;;;;;1874505;28;7129;-66
2023/03/11 05:27:18;;;;;;;;;;;;;;;;;;1875402;28;7093;-65
2023/03/11 05:28:16;;;;;;;;;;;;;;;;;;1875963;28;7033;-65
2023/03/11 05:29:13;;;;;;;;;;;;;;;;;;1875789;28;7013;-65
2023/03/11 05:30:10;;;;;;;;;;;;;;;;;;1875874;28;7013;-65
2023/03/11 05:31:09;;;;;;;;;;;;;;;;;;1875791;28;7117;-65
2023/03/11 05:32:06;;;;;;;;;;;;;;;;;;1875346;28;7030;-65
2023/03/11 05:33:04;;;;;;;;;;;;;;;;;;1875417;28;7852;-65
2023/03/11 05:34:01;;;;;;;;;;;;;;;;;;1875369;28;7169;-65
2023/03/11 05:34:58;;;;;;;;;;;;;;;;;;1875862;28;7096;-65
2023/03/11 05:36:02;;;;;;;;;;;;;;;;;;1875155;28;8545;-65
2023/03/11 05:37:00;;;;;;;;;;;;;;;;;;1876124;28;7018;-65
2023/03/11 05:37:59;;;;;;;;;;;;;;;;;;1875665;28;7054;-65
2023/03/11 05:38:56;;;;;;;;;;;;;;;;;;1875504;28;7010;-66
2023/03/11 05:39:54;;;;;;;;;;;;;;;;;;1875627;28;8034;-64
2023/03/11 05:40:51;;;;;;;;;;;;;;;;;;1875633;28;7010;-65
2023/03/11 05:41:48;;;;;;;;;;;;;;;;;;1875350;28;7317;-65
2023/03/11 05:42:46;;;;;;;;;;;;;;;;;;1876595;28;7386;-66
2023/03/11 05:43:44;;;;;;;;;;;;;;;;;;1876001;28;7130;-65
2023/03/11 05:44:41;;;;;;;;;;;;;;;;;;1868474;29;7746;-65
2023/03/11 05:45:38;;;;;;;;;;;;;;;;;;1868182;29;7138;-65
2023/03/11 05:46:35;;;;;;;;;;;;;;;;;;1874554;28;7011;-65
2023/03/11 05:47:33;;;;;;;;;;;;;;;;;;1874607;28;7010;-65
2023/03/11 05:48:31;;;;;;;;;;;;;;;;;;1866523;29;8078;-65
2023/03/11 05:49:28;;;;;;;;;;;;;;;;;;1868574;29;7010;-66
2023/03/11 05:50:25;;;;;;;;;;;;;;;;;;1873399;28;7049;-66
2023/03/11 05:51:23;;;;;;;;;;;;;;;;;;1875424;28;7042;-66
2023/03/11 05:52:20;;;;;;;;;;;;;;;;;;1875739;28;7046;-65
2023/03/11 05:53:17;;;;;;;;;;;;;;;;;;1875786;28;7054;-65
2023/03/11 05:54:15;;;;;;;;;;;;;;;;;;1875788;28;7013;-66
2023/03/11 05:55:12;;;;;;;;;;;;;;;;;;1875327;28;7013;-65
2023/03/11 05:56:10;;;;;;;;;;;;;;;;;;1876102;28;8010;-66
2023/03/11 05:57:07;;;;;;;;;;;;;;;;;;1875564;28;7041;-65
2023/03/11 05:58:05;;;;;;;;;;;;;;;;;;1875887;28;7138;-66
2023/03/11 05:59:02;;;;;;;;;;;;;;;;;;1875651;28;7014;-65
2023/03/11 06:00:00;;;;;;;;;;;;;;;;;;1875983;28;7009;-65
2023/03/11 06:00:59;;;;;;;;;;;;;;;;;;1875174;28;7014;-65
2023/03/11 06:01:56;;;;;;;;;;;;;;;;;;1874039;28;8121;-66
2023/03/11 06:02:53;;;;;;;;;;;;;;;;;;1875928;28;7038;-65
2023/03/11 06:03:51;;;;;;;;;;;;;;;;;;1874615;28;7097;-66
2023/03/11 06:04:48;;;;;;;;;;;;;;;;;;1874643;28;7377;-65
2023/03/11 06:05:47;;;;;;;;;;;;;;;;;;1866961;29;7086;-65
2023/03/11 06:06:44;;;;;;;;;;;;;;;;;;1867626;29;8024;-65
2023/03/11 06:07:42;;;;;;;;;;;;;;;;;;1874679;28;7154;-65
2023/03/11 06:08:44;;;;;;;;;;;;;;;;;;1875301;28;8085;-65
2023/03/11 06:09:42;;;;;;;;;;;;;;;;;;1875416;28;7157;-65
2023/03/11 06:10:40;;;;;;;;;;;;;;;;;;1875465;28;7952;-65
2023/03/11 06:11:37;;;;;;;;;;;;;;;;;;1875111;28;7006;-65
2023/03/11 06:12:36;;;;;;;;;;;;;;;;;;1875479;28;7006;-65
2023/03/11 06:13:34;;;;;;;;;;;;;;;;;;1874946;28;7010;-66
2023/03/11 06:14:31;;;;;;;;;;;;;;;;;;1875632;28;7235;-65
2023/03/11 06:15:28;;;;;;;;;;;;;;;;;;1875245;28;7092;-66
2023/03/11 06:16:26;;;;;;;;;;;;;;;;;;1875248;28;7010;-65
2023/03/11 06:17:23;;;;;;;;;;;;;;;;;;1875528;28;7006;-66
2023/03/11 06:18:21;;;;;;;;;;;;;;;;;;1875440;28;8024;-65
2023/03/11 06:19:19;;;;;;;;;;;;;;;;;;1875343;28;8007;-65
2023/03/11 06:20:16;;;;;;;;;;;;;;;;;;1874804;28;7097;-65
2023/03/11 06:21:18;;;;;;;;;;;;;;;;;;1875332;28;7050;-65
2023/03/11 06:22:15;;;;;;;;;;;;;;;;;;1875646;28;7144;-65
2023/03/11 06:23:13;;;;;;;;;;;;;;;;;;1873583;28;7121;-65
2023/03/11 06:24:10;;;;;;;;;;;;;;;;;;1875576;28;7010;-66
2023/03/11 06:25:08;;;;;;;;;;;;;;;;;;1875675;28;8053;-66
2023/03/11 06:26:05;;;;;;;;;;;;;;;;;;1875564;28;7010;-65
2023/03/11 06:27:03;;;;;;;;;;;;;;;;;;1875323;28;7018;-65
2023/03/11 06:28:00;;;;;;;;;;;;;;;;;;1875254;28;7005;-65
2023/03/11 06:28:57;;;;;;;;;;;;;;;;;;1874705;28;7006;-65
2023/03/11 06:29:55;;;;;;;;;;;;;;;;;;1867662;29;7232;-65
2023/03/11 06:30:52;;;;;;;;;;;;;;;;;;1867710;29;7145;-65
2023/03/11 06:31:49;;;;;;;;;;;;;;;;;;1873403;28;8101;-66
2023/03/11 06:32:47;;;;;;;;;;;;;;;;;;1874509;28;7416;-66
2023/03/11 06:33:45;;;;;;;;;;;;;;;;;;1867452;29;7341;-65
2023/03/11 06:34:42;;;;;;;;;;;;;;;;;;1867602;29;8045;-65
2023/03/11 06:35:40;;;;;;;;;;;;;;;;;;1874716;28;7370;-65
2023/03/11 06:36:37;;;;;;;;;;;;;;;;;;1874047;28;7143;-65
2023/03/11 06:37:36;;;;;;;;;;;;;;;;;;1875300;28;8027;-65
2023/03/11 06:38:33;;;;;;;;;;;;;;;;;;1875466;28;7030;-66
2023/03/11 06:39:33;;;;;;;;;;;;;;;;;;1875267;28;7038;-65
2023/03/11 06:40:30;;;;;;;;;;;;;;;;;;1875228;28;7105;-65
2023/03/11 06:41:28;;;;;;;;;;;;;;;;;;1875031;28;7031;-65
2023/03/11 06:42:25;;;;;;;;;;;;;;;;;;1875085;28;7332;-66
2023/03/11 06:43:23;;;;;;;;;;;;;;;;;;1874594;28;7109;-65
2023/03/11 06:44:20;;;;;;;;;;;;;;;;;;1874582;28;8037;-65